KMMU/MMU METAR and TAF weather

Enter ICAO airport designator
Station Type Date Time Source
KMMU METAR 2020/01/17 22:45 UTC NOAA

KMMU 172245Z 34006KT 10SM SCT250 M04/M15 A3068


Station Type Date Time Source
KMMU Decoded METAR 2020/01/17 22:45 UTC NOAA

Morristown Municipal, NJ, United States (KMMU) 40-48N 074-25W
Jan 17, 2020 - 05:45 PM EST / 2020.01.17 2245 UTC
Wind: from the NNW (340 degrees) at 7 MPH (6 KT):0
Visibility: 10 mile(s):0
Sky conditions: partly cloudy
Temperature: 24 F (-4 C)
Windchill: 15 F (-9 C):1
Dew Point: 5 F (-15 C)
Relative Humidity: 42%
Pressure (altimeter): 30.68 in. Hg (1038 hPa)
ob: KMMU 172245Z 34006KT 10SM SCT250 M04/M15 A3068
cycle: 23

Station Type Date Time Source
KMMU TAF UTC NOAA

Error!

Example: see airport list